Time,TemperatureF,DewpointF,PressureIn,WindDirection,WindDirectionDegrees,WindSpeedMPH,WindSpeedGustMPH,Humidity,HourlyPrecipIn,Conditions,Clouds,dailyrainin,SolarRadiationWatts/m^2,SoftwareType,DateUTC
2013-01-31 00:03:00,38.0,32.0,-100.00,WSW,247,10.0,26.0,78,0.01,,,2.64,0.000000,,2013-01-31 05:03:00,
2013-01-31 00:42:00,37.0,30.0,-100.00,WSW,244,12.0,27.0,76,0.00,,,2.63,0.000000,,2013-01-31 05:42:00,
2013-01-31 00:52:00,37.0,30.0,-100.00,WSW,244,12.0,27.0,76,0.00,,,2.63,0.000000,,2013-01-31 05:52:00,
2013-01-31 01:01:00,37.0,30.0,-100.00,WSW,244,12.0,27.0,76,0.00,,,2.63,0.000000,,2013-01-31 06:01:00,
2013-01-31 09:03:00,30.0,22.0,-100.00,WSW,239,8.0,14.0,71,0.00,,,2.51,8.000000,,2013-01-31 14:03:00,
2013-01-31 09:32:00,33.0,21.0,-100.00,West,272,6.0,15.0,62,0.00,,,2.50,202.000000,,2013-01-31 14:32:00,
2013-01-31 09:42:00,33.0,21.0,-100.00,West,272,6.0,15.0,62,0.00,,,2.50,202.000000,,2013-01-31 14:42:00,
2013-01-31 09:52:00,33.0,21.0,-100.00,West,272,6.0,15.0,62,0.00,,,2.50,202.000000,,2013-01-31 14:52:00,
2013-01-31 10:03:00,33.0,21.0,-100.00,West,272,6.0,15.0,62,0.00,,,2.50,202.000000,,2013-01-31 15:03:00,
2013-01-31 10:32:00,33.0,23.0,-100.00,SW,232,9.0,17.0,66,0.00,,,2.46,258.000000,,2013-01-31 15:32:00,
2013-01-31 10:42:00,33.0,23.0,-100.00,SW,232,9.0,17.0,66,0.00,,,2.46,258.000000,,2013-01-31 15:42:00,
2013-01-31 10:52:00,33.0,23.0,-100.00,SW,232,9.0,17.0,66,0.00,,,2.46,258.000000,,2013-01-31 15:52:00,
2013-01-31 11:04:00,33.0,23.0,-100.00,SW,232,9.0,17.0,66,0.00,,,2.46,258.000000,,2013-01-31 16:04:00,
2013-01-31 11:33:00,34.0,23.0,-100.00,WSW,254,7.0,17.0,64,0.00,,,2.46,431.000000,,2013-01-31 16:33:00,
2013-01-31 11:42:00,34.0,23.0,-100.00,WSW,254,7.0,17.0,64,0.00,,,2.46,431.000000,,2013-01-31 16:42:00,
2013-01-31 11:52:00,34.0,23.0,-100.00,WSW,254,7.0,17.0,64,0.00,,,2.46,431.000000,,2013-01-31 16:52:00,
2013-01-31 12:03:00,34.0,23.0,-100.00,WSW,254,7.0,17.0,64,0.00,,,2.46,431.000000,,2013-01-31 17:03:00,
2013-01-31 12:32:00,36.0,23.0,-100.00,NW,309,7.0,20.0,60,0.00,,,1.36,407.000000,,2013-01-31 17:32:00,
2013-01-31 12:44:00,36.0,23.0,-100.00,NW,309,7.0,20.0,60,0.00,,,1.36,407.000000,,2013-01-31 17:44:00,
2013-01-31 12:53:00,36.0,23.0,-100.00,NW,309,7.0,20.0,60,0.00,,,1.36,407.000000,,2013-01-31 17:53:00,
2013-01-31 13:03:00,36.0,23.0,-100.00,NW,309,7.0,20.0,60,0.00,,,1.36,407.000000,,2013-01-31 18:03:00,
2013-01-31 13:32:00,38.0,22.0,-100.00,West,263,9.0,16.0,52,0.00,,,1.08,723.000000,,2013-01-31 18:32:00,
2013-01-31 13:43:00,38.0,22.0,-100.00,West,263,9.0,16.0,52,0.00,,,1.08,723.000000,,2013-01-31 18:43:00,
2013-01-31 13:52:00,38.0,22.0,-100.00,West,263,9.0,16.0,52,0.00,,,1.08,723.000000,,2013-01-31 18:52:00,
2013-01-31 14:03:00,38.0,22.0,-100.00,West,263,9.0,16.0,52,0.00,,,1.08,723.000000,,2013-01-31 19:03:00,
2013-01-31 14:33:00,40.0,21.0,-100.00,West,261,7.0,17.0,46,0.00,,,0.85,601.000000,,2013-01-31 19:33:00,
2013-01-31 14:43:00,40.0,21.0,-100.00,West,261,7.0,17.0,46,0.00,,,0.85,601.000000,,2013-01-31 19:43:00,
2013-01-31 14:52:00,40.0,21.0,-100.00,West,261,7.0,17.0,46,0.00,,,0.85,601.000000,,2013-01-31 19:52:00,
2013-01-31 15:03:00,40.0,21.0,-100.00,West,261,7.0,17.0,46,0.00,,,0.85,601.000000,,2013-01-31 20:03:00,
2013-01-31 16:32:00,43.0,19.0,-100.00,West,270,9.0,20.0,37,-99.99,,,0.34,443.000000,,2013-01-31 21:32:00,
2013-01-31 16:42:00,43.0,19.0,-100.00,West,270,9.0,20.0,37,-99.99,,,0.34,443.000000,,2013-01-31 21:42:00,
2013-01-31 16:52:00,43.0,19.0,-100.00,West,270,9.0,20.0,37,-99.99,,,0.34,443.000000,,2013-01-31 21:52:00,
2013-01-31 17:03:00,43.0,19.0,-100.00,West,270,9.0,20.0,37,-99.99,,,0.34,443.000000,,2013-01-31 22:03:00,
2013-01-31 17:33:00,42.0,19.0,-100.00,WNW,292,9.0,17.0,39,0.00,,,0.14,256.000000,,2013-01-31 22:33:00,
2013-01-31 17:42:00,42.0,19.0,-100.00,WNW,292,9.0,17.0,39,0.00,,,0.14,256.000000,,2013-01-31 22:42:00,
2013-01-31 17:52:00,42.0,19.0,-100.00,WNW,292,9.0,17.0,39,0.00,,,0.14,256.000000,,2013-01-31 22:52:00,
2013-01-31 18:03:00,42.0,19.0,-100.00,WNW,292,9.0,17.0,39,0.00,,,0.14,256.000000,,2013-01-31 23:03:00,
2013-01-31 18:32:00,39.0,18.0,-100.00,WSW,243,7.0,15.0,43,0.00,,,0.04,61.000000,,2013-01-31 23:32:00,
2013-01-31 18:42:00,39.0,18.0,-100.00,WSW,243,7.0,15.0,43,0.00,,,0.04,61.000000,,2013-01-31 23:42:00,
2013-01-31 18:52:00,39.0,18.0,-100.00,WSW,243,7.0,15.0,43,0.00,,,0.04,61.000000,,2013-01-31 23:52:00,
2013-01-31 19:02:00,39.0,18.0,-100.00,WSW,243,7.0,15.0,43,0.00,,,0.04,61.000000,,2013-02-01 00:02:00,
2013-01-31 19:32:00,37.0,19.0,-100.00,WSW,237,4.0,14.0,48,0.00,,,0.02,1.000000,,2013-02-01 00:32:00,
2013-01-31 19:42:00,37.0,19.0,-100.00,WSW,237,4.0,14.0,48,0.00,,,0.02,1.000000,,2013-02-01 00:42:00,
2013-01-31 19:52:00,37.0,19.0,-100.00,WSW,237,4.0,14.0,48,0.00,,,0.02,1.000000,,2013-02-01 00:52:00,
2013-01-31 20:01:00,37.0,19.0,-100.00,WSW,237,4.0,14.0,48,0.00,,,0.02,1.000000,,2013-02-01 01:01:00,
2013-01-31 20:32:00,38.0,22.0,-100.00,SW,227,8.0,14.0,51,0.00,,,-99.99,0.000000,,2013-02-01 01:32:00,
2013-01-31 20:42:00,38.0,22.0,-100.00,SW,227,8.0,14.0,51,0.00,,,-99.99,0.000000,,2013-02-01 01:42:00,
2013-01-31 20:52:00,38.0,22.0,-100.00,SW,227,8.0,14.0,51,0.00,,,-99.99,0.000000,,2013-02-01 01:52:00,
2013-01-31 21:02:00,38.0,22.0,-100.00,SW,227,8.0,14.0,51,0.00,,,-99.99,0.000000,,2013-02-01 02:02:00,
2013-01-31 21:32:00,38.0,22.0,-100.00,SW,217,8.0,14.0,51,0.00,,,0.01,0.000000,,2013-02-01 02:32:00,
2013-01-31 21:42:00,38.0,22.0,-100.00,SW,217,8.0,14.0,51,0.00,,,0.01,0.000000,,2013-02-01 02:42:00,
2013-01-31 21:52:00,38.0,22.0,-100.00,SW,217,8.0,14.0,51,0.00,,,0.01,0.000000,,2013-02-01 02:52:00,
2013-01-31 22:02:00,38.0,22.0,-100.00,SW,217,8.0,14.0,51,0.00,,,0.01,0.000000,,2013-02-01 03:02:00,
2013-01-31 22:33:00,39.0,22.0,-100.00,SW,218,10.0,18.0,50,0.00,,,0.01,0.000000,,2013-02-01 03:33:00,
2013-01-31 22:42:00,39.0,22.0,-100.00,SW,218,10.0,18.0,50,0.00,,,0.01,0.000000,,2013-02-01 03:42:00,
2013-01-31 22:52:00,39.0,22.0,-100.00,SW,218,10.0,18.0,50,0.00,,,0.01,0.000000,,2013-02-01 03:52:00,
2013-01-31 23:02:00,39.0,22.0,-100.00,SW,218,10.0,18.0,50,0.00,,,0.01,0.000000,,2013-02-01 04:02:00,
2013-01-31 23:32:00,39.0,22.0,-100.00,SW,215,10.0,20.0,50,0.00,,,0.00,0.000000,,2013-02-01 04:32:00,
2013-01-31 23:42:00,39.0,22.0,-100.00,SW,215,10.0,20.0,50,0.00,,,0.00,0.000000,,2013-02-01 04:42:00,
2013-01-31 23:52:00,39.0,22.0,-100.00,SW,215,10.0,20.0,50,0.00,,,0.00,0.000000,,2013-02-01 04:52:00,